sensor_id;sensor_type;location;lat;lon;timestamp;temperature;humidity
72883;DHT22;61017;37.812;-122.286;2023-05-07T00:00:35;16.00;87.50
72883;DHT22;61017;37.812;-122.286;2023-05-07T00:02:07;16.00;87.50
72883;DHT22;61017;37.812;-122.286;2023-05-07T00:03:38;16.00;87.50
72883;DHT22;61017;37.812;-122.286;2023-05-07T00:05:11;16.00;87.60
72883;DHT22;61017;37.812;-122.286;2023-05-07T00:06:43;16.00;87.60
72883;DHT22;61017;37.812;-122.286;2023-05-07T00:08:14;16.00;87.60
72883;DHT22;61017;37.812;-122.286;2023-05-07T00:09:46;16.00;87.40
72883;DHT22;61017;37.812;-122.286;2023-05-07T00:11:17;16.00;87.30
72883;DHT22;61017;37.812;-122.286;2023-05-07T00:12:52;16.00;87.50
72883;DHT22;61017;37.812;-122.286;2023-05-07T00:16:17;16.00;87.40
72883;DHT22;61017;37.812;-122.286;2023-05-07T00:17:48;16.00;87.30
72883;DHT22;61017;37.812;-122.286;2023-05-07T00:19:20;16.00;87.50
72883;DHT22;61017;37.812;-122.286;2023-05-07T00:20:51;16.00;87.50
72883;DHT22;61017;37.812;-122.286;2023-05-07T00:22:23;16.00;87.30
72883;DHT22;61017;37.812;-122.286;2023-05-07T00:23:55;16.00;87.40
72883;DHT22;61017;37.812;-122.286;2023-05-07T00:25:26;16.00;87.50
72883;DHT22;61017;37.812;-122.286;2023-05-07T00:26:58;16.00;87.40
72883;DHT22;61017;37.812;-122.286;2023-05-07T00:28:29;16.00;87.50
72883;DHT22;61017;37.812;-122.286;2023-05-07T00:30:01;16.00;87.60
72883;DHT22;61017;37.812;-122.286;2023-05-07T00:31:33;16.00;87.50
72883;DHT22;61017;37.812;-122.286;2023-05-07T00:33:04;16.00;87.50
72883;DHT22;61017;37.812;-122.286;2023-05-07T00:34:36;16.00;87.50
72883;DHT22;61017;37.812;-122.286;2023-05-07T00:36:07;16.00;87.40
72883;DHT22;61017;37.812;-122.286;2023-05-07T00:37:39;16.00;87.60
72883;DHT22;61017;37.812;-122.286;2023-05-07T00:39:11;16.00;87.60
72883;DHT22;61017;37.812;-122.286;2023-05-07T00:40:42;16.00;87.60
72883;DHT22;61017;37.812;-122.286;2023-05-07T00:42:14;16.00;87.50
72883;DHT22;61017;37.812;-122.286;2023-05-07T00:43:45;16.00;87.60
72883;DHT22;61017;37.812;-122.286;2023-05-07T00:45:17;15.90;87.50
72883;DHT22;61017;37.812;-122.286;2023-05-07T00:46:49;16.00;87.60
72883;DHT22;61017;37.812;-122.286;2023-05-07T00:48:21;16.00;87.70
72883;DHT22;61017;37.812;-122.286;2023-05-07T00:49:53;15.90;87.60
72883;DHT22;61017;37.812;-122.286;2023-05-07T00:51:26;16.00;87.80
72883;DHT22;61017;37.812;-122.286;2023-05-07T00:52:58;15.90;87.60
72883;DHT22;61017;37.812;-122.286;2023-05-07T00:54:30;15.90;87.60
72883;DHT22;61017;37.812;-122.286;2023-05-07T00:56:01;15.90;87.60
72883;DHT22;61017;37.812;-122.286;2023-05-07T00:57:36;16.00;87.70
72883;DHT22;61017;37.812;-122.286;2023-05-07T00:59:08;15.90;87.70
72883;DHT22;61017;37.812;-122.286;2023-05-07T01:00:40;15.90;87.80
72883;DHT22;61017;37.812;-122.286;2023-05-07T01:02:11;15.90;87.70
72883;DHT22;61017;37.812;-122.286;2023-05-07T01:03:43;15.90;87.80
72883;DHT22;61017;37.812;-122.286;2023-05-07T01:05:17;15.90;87.90
72883;DHT22;61017;37.812;-122.286;2023-05-07T01:06:50;15.90;87.90
72883;DHT22;61017;37.812;-122.286;2023-05-07T01:08:22;15.90;87.80
72883;DHT22;61017;37.812;-122.286;2023-05-07T01:09:54;15.90;87.90
72883;DHT22;61017;37.812;-122.286;2023-05-07T01:11:26;15.90;87.90
72883;DHT22;61017;37.812;-122.286;2023-05-07T01:12:59;15.90;87.90
72883;DHT22;61017;37.812;-122.286;2023-05-07T01:14:30;15.90;87.90
72883;DHT22;61017;37.812;-122.286;2023-05-07T01:16:03;15.90;88.00
72883;DHT22;61017;37.812;-122.286;2023-05-07T01:17:39;15.90;88.00
72883;DHT22;61017;37.812;-122.286;2023-05-07T01:19:12;15.90;88.10
72883;DHT22;61017;37.812;-122.286;2023-05-07T01:20:44;15.90;88.00
72883;DHT22;61017;37.812;-122.286;2023-05-07T01:23:54;15.90;87.90
72883;DHT22;61017;37.812;-122.286;2023-05-07T01:25:26;15.90;87.90
72883;DHT22;61017;37.812;-122.286;2023-05-07T01:26:58;15.90;88.10
72883;DHT22;61017;37.812;-122.286;2023-05-07T01:28:30;15.90;88.10
72883;DHT22;61017;37.812;-122.286;2023-05-07T01:30:02;15.90;88.00
72883;DHT22;61017;37.812;-122.286;2023-05-07T01:31:35;15.90;88.10
72883;DHT22;61017;37.812;-122.286;2023-05-07T01:33:10;15.90;88.10
72883;DHT22;61017;37.812;-122.286;2023-05-07T01:34:43;15.90;88.10
72883;DHT22;61017;37.812;-122.286;2023-05-07T01:36:15;15.90;88.10
72883;DHT22;61017;37.812;-122.286;2023-05-07T01:37:48;15.90;88.20
72883;DHT22;61017;37.812;-122.286;2023-05-07T01:39:22;15.90;88.20
72883;DHT22;61017;37.812;-122.286;2023-05-07T01:40:55;15.90;88.10
72883;DHT22;61017;37.812;-122.286;2023-05-07T01:42:26;15.90;88.10
72883;DHT22;61017;37.812;-122.286;2023-05-07T01:43:58;15.90;88.20
72883;DHT22;61017;37.812;-122.286;2023-05-07T01:45:34;15.90;88.20
72883;DHT22;61017;37.812;-122.286;2023-05-07T01:47:06;15.90;88.20
72883;DHT22;61017;37.812;-122.286;2023-05-07T01:48:38;15.90;88.20
72883;DHT22;61017;37.812;-122.286;2023-05-07T01:50:10;15.90;88.20
72883;DHT22;61017;37.812;-122.286;2023-05-07T01:51:42;15.90;88.20
72883;DHT22;61017;37.812;-122.286;2023-05-07T01:53:14;15.90;88.30
72883;DHT22;61017;37.812;-122.286;2023-05-07T01:54:45;15.90;88.30
72883;DHT22;61017;37.812;-122.286;2023-05-07T01:56:20;15.90;88.20
72883;DHT22;61017;37.812;-122.286;2023-05-07T01:57:52;15.90;88.30
72883;DHT22;61017;37.812;-122.286;2023-05-07T02:00:01;15.90;88.20
72883;DHT22;61017;37.812;-122.286;2023-05-07T02:01:33;15.90;88.30
72883;DHT22;61017;37.812;-122.286;2023-05-07T02:05:41;15.90;88.40
72883;DHT22;61017;37.812;-122.286;2023-05-07T02:07:15;15.90;88.30
72883;DHT22;61017;37.812;-122.286;2023-05-07T02:08:47;15.90;88.30
72883;DHT22;61017;37.812;-122.286;2023-05-07T02:10:19;15.90;88.40
72883;DHT22;61017;37.812;-122.286;2023-05-07T02:11:50;15.90;88.40
72883;DHT22;61017;37.812;-122.286;2023-05-07T02:13:22;15.90;88.30
72883;DHT22;61017;37.812;-122.286;2023-05-07T02:14:53;15.90;88.30
72883;DHT22;61017;37.812;-122.286;2023-05-07T02:16:25;15.90;88.40
72883;DHT22;61017;37.812;-122.286;2023-05-07T02:18:07;15.90;88.40
72883;DHT22;61017;37.812;-122.286;2023-05-07T02:19:39;15.90;88.50
72883;DHT22;61017;37.812;-122.286;2023-05-07T02:21:11;15.90;88.40
72883;DHT22;61017;37.812;-122.286;2023-05-07T02:22:42;15.90;88.40
72883;DHT22;61017;37.812;-122.286;2023-05-07T02:24:17;15.90;88.50
72883;DHT22;61017;37.812;-122.286;2023-05-07T02:25:49;15.90;88.40
72883;DHT22;61017;37.812;-122.286;2023-05-07T02:27:21;15.90;88.50
72883;DHT22;61017;37.812;-122.286;2023-05-07T02:28:53;15.90;88.50
72883;DHT22;61017;37.812;-122.286;2023-05-07T02:30:25;15.90;88.50
72883;DHT22;61017;37.812;-122.286;2023-05-07T02:31:56;15.90;89.30
72883;DHT22;61017;37.812;-122.286;2023-05-07T02:33:28;15.90;88.50
72883;DHT22;61017;37.812;-122.286;2023-05-07T02:35:00;15.80;88.50
72883;DHT22;61017;37.812;-122.286;2023-05-07T02:36:31;15.90;88.60
72883;DHT22;61017;37.812;-122.286;2023-05-07T02:38:03;15.90;88.50
72883;DHT22;61017;37.812;-122.286;2023-05-07T02:39:35;15.80;88.50
72883;DHT22;61017;37.812;-122.286;2023-05-07T02:41:06;15.80;88.50
72883;DHT22;61017;37.812;-122.286;2023-05-07T02:42:38;15.90;88.70
72883;DHT22;61017;37.812;-122.286;2023-05-07T02:44:09;15.80;88.50
72883;DHT22;61017;37.812;-122.286;2023-05-07T02:45:42;15.80;88.50
72883;DHT22;61017;37.812;-122.286;2023-05-07T02:47:17;15.80;88.50
72883;DHT22;61017;37.812;-122.286;2023-05-07T02:48:48;15.80;88.50
72883;DHT22;61017;37.812;-122.286;2023-05-07T02:50:20;15.90;88.70
72883;DHT22;61017;37.812;-122.286;2023-05-07T02:51:51;15.90;88.70
72883;DHT22;61017;37.812;-122.286;2023-05-07T02:53:23;15.80;88.60
72883;DHT22;61017;37.812;-122.286;2023-05-07T02:54:55;15.80;88.50
72883;DHT22;61017;37.812;-122.286;2023-05-07T02:56:26;15.80;88.50
72883;DHT22;61017;37.812;-122.286;2023-05-07T02:57:58;15.80;89.40
72883;DHT22;61017;37.812;-122.286;2023-05-07T02:59:30;15.90;88.60
72883;DHT22;61017;37.812;-122.286;2023-05-07T03:01:01;15.80;88.60
72883;DHT22;61017;37.812;-122.286;2023-05-07T03:02:33;15.80;88.80
72883;DHT22;61017;37.812;-122.286;2023-05-07T03:04:04;15.80;88.70
72883;DHT22;61017;37.812;-122.286;2023-05-07T03:05:36;15.80;88.80
72883;DHT22;61017;37.812;-122.286;2023-05-07T03:07:08;15.80;88.70
72883;DHT22;61017;37.812;-122.286;2023-05-07T03:08:43;15.80;88.80
72883;DHT22;61017;37.812;-122.286;2023-05-07T03:10:17;15.80;88.80
72883;DHT22;61017;37.812;-122.286;2023-05-07T03:11:54;15.90;89.00
72883;DHT22;61017;37.812;-122.286;2023-05-07T03:13:26;15.80;88.80
72883;DHT22;61017;37.812;-122.286;2023-05-07T03:14:57;15.80;89.00
72883;DHT22;61017;37.812;-122.286;2023-05-07T03:16:32;15.80;89.00
72883;DHT22;61017;37.812;-122.286;2023-05-07T03:18:04;15.80;89.00
72883;DHT22;61017;37.812;-122.286;2023-05-07T03:19:35;15.80;89.10
72883;DHT22;61017;37.812;-122.286;2023-05-07T03:21:13;15.80;89.10
72883;DHT22;61017;37.812;-122.286;2023-05-07T03:22:44;15.80;89.10
72883;DHT22;61017;37.812;-122.286;2023-05-07T03:24:16;15.80;89.20
72883;DHT22;61017;37.812;-122.286;2023-05-07T03:25:48;15.80;89.20
72883;DHT22;61017;37.812;-122.286;2023-05-07T03:27:19;15.80;89.40
72883;DHT22;61017;37.812;-122.286;2023-05-07T03:28:54;15.80;89.30
72883;DHT22;61017;37.812;-122.286;2023-05-07T03:30:26;15.80;89.30
72883;DHT22;61017;37.812;-122.286;2023-05-07T03:31:57;15.80;89.30
72883;DHT22;61017;37.812;-122.286;2023-05-07T03:33:29;15.80;89.20
72883;DHT22;61017;37.812;-122.286;2023-05-07T03:35:01;15.80;89.30
72883;DHT22;61017;37.812;-122.286;2023-05-07T03:36:36;15.80;89.20
72883;DHT22;61017;37.812;-122.286;2023-05-07T03:38:07;15.80;89.40
72883;DHT22;61017;37.812;-122.286;2023-05-07T03:39:39;15.80;89.40
72883;DHT22;61017;37.812;-122.286;2023-05-07T03:41:12;15.80;89.40
72883;DHT22;61017;37.812;-122.286;2023-05-07T03:42:43;15.80;89.40
72883;DHT22;61017;37.812;-122.286;2023-05-07T03:44:15;15.80;89.30
72883;DHT22;61017;37.812;-122.286;2023-05-07T03:45:46;15.80;89.40
72883;DHT22;61017;37.812;-122.286;2023-05-07T03:47:18;15.80;89.30
72883;DHT22;61017;37.812;-122.286;2023-05-07T03:48:49;15.80;89.30
72883;DHT22;61017;37.812;-122.286;2023-05-07T03:50:21;15.80;89.30
72883;DHT22;61017;37.812;-122.286;2023-05-07T03:51:52;15.80;89.40
72883;DHT22;61017;37.812;-122.286;2023-05-07T03:53:24;15.80;89.30
72883;DHT22;61017;37.812;-122.286;2023-05-07T03:54:56;15.80;89.20
72883;DHT22;61017;37.812;-122.286;2023-05-07T03:56:27;15.80;89.20
72883;DHT22;61017;37.812;-122.286;2023-05-07T03:57:59;15.80;89.20
72883;DHT22;61017;37.812;-122.286;2023-05-07T03:59:31;15.80;89.30
72883;DHT22;61017;37.812;-122.286;2023-05-07T04:01:02;15.80;89.30
72883;DHT22;61017;37.812;-122.286;2023-05-07T04:02:35;15.80;89.30
72883;DHT22;61017;37.812;-122.286;2023-05-07T04:04:06;15.80;89.30
72883;DHT22;61017;37.812;-122.286;2023-05-07T04:05:41;15.80;89.30
72883;DHT22;61017;37.812;-122.286;2023-05-07T04:07:13;15.80;89.20
72883;DHT22;61017;37.812;-122.286;2023-05-07T04:08:45;15.80;89.20
72883;DHT22;61017;37.812;-122.286;2023-05-07T04:10:16;15.80;89.20
72883;DHT22;61017;37.812;-122.286;2023-05-07T04:11:48;15.80;89.20
72883;DHT22;61017;37.812;-122.286;2023-05-07T04:13:20;15.80;89.10
72883;DHT22;61017;37.812;-122.286;2023-05-07T04:14:51;15.80;89.10
72883;DHT22;61017;37.812;-122.286;2023-05-07T04:16:23;15.80;89.20
72883;DHT22;61017;37.812;-122.286;2023-05-07T04:17:54;15.80;89.10
72883;DHT22;61017;37.812;-122.286;2023-05-07T04:19:26;15.80;89.10
72883;DHT22;61017;37.812;-122.286;2023-05-07T04:20:57;15.80;89.20
72883;DHT22;61017;37.812;-122.286;2023-05-07T04:22:29;15.80;89.30
72883;DHT22;61017;37.812;-122.286;2023-05-07T04:24:02;15.80;89.20
72883;DHT22;61017;37.812;-122.286;2023-05-07T04:25:36;15.80;89.20
72883;DHT22;61017;37.812;-122.286;2023-05-07T04:27:10;15.80;89.10
72883;DHT22;61017;37.812;-122.286;2023-05-07T04:28:45;15.80;89.20
72883;DHT22;61017;37.812;-122.286;2023-05-07T04:30:16;15.80;89.20
72883;DHT22;61017;37.812;-122.286;2023-05-07T04:31:48;15.80;89.30
72883;DHT22;61017;37.812;-122.286;2023-05-07T04:33:19;15.80;89.30
72883;DHT22;61017;37.812;-122.286;2023-05-07T04:34:51;15.80;89.20
72883;DHT22;61017;37.812;-122.286;2023-05-07T04:36:22;15.80;89.10
72883;DHT22;61017;37.812;-122.286;2023-05-07T04:37:55;15.80;89.00
72883;DHT22;61017;37.812;-122.286;2023-05-07T04:39:27;15.80;89.00
72883;DHT22;61017;37.812;-122.286;2023-05-07T04:41:03;15.80;89.10
72883;DHT22;61017;37.812;-122.286;2023-05-07T04:44:24;15.80;89.20
72883;DHT22;61017;37.812;-122.286;2023-05-07T04:45:56;15.70;88.90
72883;DHT22;61017;37.812;-122.286;2023-05-07T04:47:28;15.70;88.90
72883;DHT22;61017;37.812;-122.286;2023-05-07T04:48:59;15.80;89.10
72883;DHT22;61017;37.812;-122.286;2023-05-07T04:50:31;15.70;88.90
72883;DHT22;61017;37.812;-122.286;2023-05-07T04:52:02;15.70;88.90
72883;DHT22;61017;37.812;-122.286;2023-05-07T04:53:38;15.70;89.00
72883;DHT22;61017;37.812;-122.286;2023-05-07T04:55:10;15.70;89.00
72883;DHT22;61017;37.812;-122.286;2023-05-07T04:56:42;15.70;88.90
72883;DHT22;61017;37.812;-122.286;2023-05-07T04:58:13;15.70;88.90
72883;DHT22;61017;37.812;-122.286;2023-05-07T04:59:45;15.70;88.90
72883;DHT22;61017;37.812;-122.286;2023-05-07T05:01:16;15.70;89.10
72883;DHT22;61017;37.812;-122.286;2023-05-07T05:02:48;15.70;88.90
72883;DHT22;61017;37.812;-122.286;2023-05-07T05:04:20;15.70;89.00
72883;DHT22;61017;37.812;-122.286;2023-05-07T05:05:52;15.70;88.90
72883;DHT22;61017;37.812;-122.286;2023-05-07T05:07:23;15.70;88.80
72883;DHT22;61017;37.812;-122.286;2023-05-07T05:08:55;15.80;89.00
72883;DHT22;61017;37.812;-122.286;2023-05-07T05:10:29;15.70;89.00
72883;DHT22;61017;37.812;-122.286;2023-05-07T05:12:04;15.70;89.00
72883;DHT22;61017;37.812;-122.286;2023-05-07T05:13:36;15.70;89.00
72883;DHT22;61017;37.812;-122.286;2023-05-07T05:15:08;15.70;88.90
72883;DHT22;61017;37.812;-122.286;2023-05-07T05:16:40;15.70;89.00
72883;DHT22;61017;37.812;-122.286;2023-05-07T05:18:11;15.70;89.00
72883;DHT22;61017;37.812;-122.286;2023-05-07T05:19:43;15.70;88.90
72883;DHT22;61017;37.812;-122.286;2023-05-07T05:21:14;15.70;88.90
72883;DHT22;61017;37.812;-122.286;2023-05-07T05:22:46;15.70;89.70
72883;DHT22;61017;37.812;-122.286;2023-05-07T05:24:18;15.70;88.90
72883;DHT22;61017;37.812;-122.286;2023-05-07T05:25:49;15.70;89.00
72883;DHT22;61017;37.812;-122.286;2023-05-07T05:27:21;15.70;88.90
72883;DHT22;61017;37.812;-122.286;2023-05-07T05:28:52;15.70;88.90
72883;DHT22;61017;37.812;-122.286;2023-05-07T05:30:27;15.70;88.90
72883;DHT22;61017;37.812;-122.286;2023-05-07T05:31:58;15.70;88.80
72883;DHT22;61017;37.812;-122.286;2023-05-07T05:33:33;15.70;88.80
72883;DHT22;61017;37.812;-122.286;2023-05-07T05:35:08;15.70;88.90
72883;DHT22;61017;37.812;-122.286;2023-05-07T05:36:39;15.70;89.00
72883;DHT22;61017;37.812;-122.286;2023-05-07T05:38:11;15.70;88.90
72883;DHT22;61017;37.812;-122.286;2023-05-07T05:39:42;15.70;88.90
72883;DHT22;61017;37.812;-122.286;2023-05-07T05:41:14;15.70;88.90
72883;DHT22;61017;37.812;-122.286;2023-05-07T05:42:46;15.70;88.90
72883;DHT22;61017;37.812;-122.286;2023-05-07T05:44:25;15.70;88.90
72883;DHT22;61017;37.812;-122.286;2023-05-07T05:45:57;15.70;88.90
72883;DHT22;61017;37.812;-122.286;2023-05-07T05:47:29;15.70;88.90
72883;DHT22;61017;37.812;-122.286;2023-05-07T05:49:01;15.70;89.00
72883;DHT22;61017;37.812;-122.286;2023-05-07T05:50:32;15.70;88.90
72883;DHT22;61017;37.812;-122.286;2023-05-07T05:52:04;15.70;88.90
72883;DHT22;61017;37.812;-122.286;2023-05-07T05:53:36;15.70;88.90
72883;DHT22;61017;37.812;-122.286;2023-05-07T05:55:08;15.70;88.90
72883;DHT22;61017;37.812;-122.286;2023-05-07T05:56:42;15.70;88.90
72883;DHT22;61017;37.812;-122.286;2023-05-07T05:58:14;15.70;89.00
72883;DHT22;61017;37.812;-122.286;2023-05-07T05:59:46;15.70;88.90
72883;DHT22;61017;37.812;-122.286;2023-05-07T06:01:39;15.70;88.90
72883;DHT22;61017;37.812;-122.286;2023-05-07T06:03:11;15.70;88.90
72883;DHT22;61017;37.812;-122.286;2023-05-07T06:04:43;15.70;89.00
72883;DHT22;61017;37.812;-122.286;2023-05-07T06:06:14;15.70;88.90
72883;DHT22;61017;37.812;-122.286;2023-05-07T06:07:46;15.70;88.90
72883;DHT22;61017;37.812;-122.286;2023-05-07T06:09:17;15.70;88.90
72883;DHT22;61017;37.812;-122.286;2023-05-07T06:10:49;15.70;88.90
72883;DHT22;61017;37.812;-122.286;2023-05-07T06:12:21;15.70;88.90
72883;DHT22;61017;37.812;-122.286;2023-05-07T06:13:52;15.70;89.00
72883;DHT22;61017;37.812;-122.286;2023-05-07T06:15:24;15.70;89.00
72883;DHT22;61017;37.812;-122.286;2023-05-07T06:16:56;15.70;88.90
72883;DHT22;61017;37.812;-122.286;2023-05-07T06:18:28;15.70;88.90
72883;DHT22;61017;37.812;-122.286;2023-05-07T06:20:02;15.70;88.90
72883;DHT22;61017;37.812;-122.286;2023-05-07T06:21:34;15.70;88.90
72883;DHT22;61017;37.812;-122.286;2023-05-07T06:23:06;15.70;89.00
72883;DHT22;61017;37.812;-122.286;2023-05-07T06:24:37;15.70;88.90
72883;DHT22;61017;37.812;-122.286;2023-05-07T06:26:09;15.70;88.90
72883;DHT22;61017;37.812;-122.286;2023-05-07T06:27:42;15.70;88.90
72883;DHT22;61017;37.812;-122.286;2023-05-07T06:29:13;15.70;88.90
72883;DHT22;61017;37.812;-122.286;2023-05-07T06:30:47;15.70;89.00
72883;DHT22;61017;37.812;-122.286;2023-05-07T06:32:19;15.70;89.00
72883;DHT22;61017;37.812;-122.286;2023-05-07T06:33:51;15.70;89.00
72883;DHT22;61017;37.812;-122.286;2023-05-07T06:35:22;15.70;89.00
72883;DHT22;61017;37.812;-122.286;2023-05-07T06:36:54;15.70;89.00
72883;DHT22;61017;37.812;-122.286;2023-05-07T06:38:25;15.70;89.00
72883;DHT22;61017;37.812;-122.286;2023-05-07T06:39:57;15.70;89.00
72883;DHT22;61017;37.812;-122.286;2023-05-07T06:41:29;15.70;89.00
72883;DHT22;61017;37.812;-122.286;2023-05-07T06:43:01;15.70;89.00
72883;DHT22;61017;37.812;-122.286;2023-05-07T06:44:35;15.70;89.00
72883;DHT22;61017;37.812;-122.286;2023-05-07T06:46:07;15.70;89.10
72883;DHT22;61017;37.812;-122.286;2023-05-07T06:47:38;15.70;89.00
72883;DHT22;61017;37.812;-122.286;2023-05-07T06:49:10;15.70;88.90
72883;DHT22;61017;37.812;-122.286;2023-05-07T06:50:42;15.70;89.00
72883;DHT22;61017;37.812;-122.286;2023-05-07T06:52:17;15.70;89.10
72883;DHT22;61017;37.812;-122.286;2023-05-07T06:53:48;15.70;88.90
72883;DHT22;61017;37.812;-122.286;2023-05-07T06:55:20;15.70;88.90
72883;DHT22;61017;37.812;-122.286;2023-05-07T06:56:52;15.70;88.90
72883;DHT22;61017;37.812;-122.286;2023-05-07T06:58:23;15.70;88.90
72883;DHT22;61017;37.812;-122.286;2023-05-07T06:59:55;15.70;88.90
72883;DHT22;61017;37.812;-122.286;2023-05-07T07:01:27;15.70;88.90
72883;DHT22;61017;37.812;-122.286;2023-05-07T07:02:58;15.70;88.90
72883;DHT22;61017;37.812;-122.286;2023-05-07T07:04:30;15.70;88.90
72883;DHT22;61017;37.812;-122.286;2023-05-07T07:06:02;15.70;88.90
72883;DHT22;61017;37.812;-122.286;2023-05-07T07:07:33;15.70;88.80
72883;DHT22;61017;37.812;-122.286;2023-05-07T07:09:05;15.70;88.90
72883;DHT22;61017;37.812;-122.286;2023-05-07T07:10:36;15.70;88.90
72883;DHT22;61017;37.812;-122.286;2023-05-07T07:12:08;15.70;88.90
72883;DHT22;61017;37.812;-122.286;2023-05-07T07:13:40;15.60;88.70
72883;DHT22;61017;37.812;-122.286;2023-05-07T07:15:12;15.60;88.80
72883;DHT22;61017;37.812;-122.286;2023-05-07T07:16:44;15.70;88.90
72883;DHT22;61017;37.812;-122.286;2023-05-07T07:18:16;15.60;88.70
72883;DHT22;61017;37.812;-122.286;2023-05-07T07:19:47;15.70;88.80
72883;DHT22;61017;37.812;-122.286;2023-05-07T07:21:20;15.60;88.80
72883;DHT22;61017;37.812;-122.286;2023-05-07T07:22:52;15.70;88.80
72883;DHT22;61017;37.812;-122.286;2023-05-07T07:24:23;15.60;88.60
72883;DHT22;61017;37.812;-122.286;2023-05-07T07:25:55;15.60;88.60
72883;DHT22;61017;37.812;-122.286;2023-05-07T07:27:26;15.60;88.60
72883;DHT22;61017;37.812;-122.286;2023-05-07T07:28:58;15.60;88.60
72883;DHT22;61017;37.812;-122.286;2023-05-07T07:30:30;15.60;88.50
72883;DHT22;61017;37.812;-122.286;2023-05-07T07:32:04;15.60;88.50
72883;DHT22;61017;37.812;-122.286;2023-05-07T07:33:36;15.60;88.60
72883;DHT22;61017;37.812;-122.286;2023-05-07T07:35:08;15.60;88.60
72883;DHT22;61017;37.812;-122.286;2023-05-07T07:36:40;15.60;88.50
72883;DHT22;61017;37.812;-122.286;2023-05-07T07:38:12;15.60;88.50
72883;DHT22;61017;37.812;-122.286;2023-05-07T07:39:43;15.60;88.60
72883;DHT22;61017;37.812;-122.286;2023-05-07T07:41:15;15.60;88.50
72883;DHT22;61017;37.812;-122.286;2023-05-07T07:42:47;15.60;88.50
72883;DHT22;61017;37.812;-122.286;2023-05-07T07:44:18;15.60;88.50
72883;DHT22;61017;37.812;-122.286;2023-05-07T07:45:50;15.60;88.50
72883;DHT22;61017;37.812;-122.286;2023-05-07T07:47:24;15.60;88.40
72883;DHT22;61017;37.812;-122.286;2023-05-07T07:48:55;15.60;88.60
72883;DHT22;61017;37.812;-122.286;2023-05-07T07:50:27;15.60;88.50
72883;DHT22;61017;37.812;-122.286;2023-05-07T07:51:59;15.60;88.40
72883;DHT22;61017;37.812;-122.286;2023-05-07T07:53:33;15.60;88.50
72883;DHT22;61017;37.812;-122.286;2023-05-07T07:55:06;15.60;88.60
72883;DHT22;61017;37.812;-122.286;2023-05-07T07:56:40;15.60;88.50
72883;DHT22;61017;37.812;-122.286;2023-05-07T07:58:12;15.60;88.50
72883;DHT22;61017;37.812;-122.286;2023-05-07T07:59:43;15.60;88.50
72883;DHT22;61017;37.812;-122.286;2023-05-07T08:01:15;15.60;88.50
72883;DHT22;61017;37.812;-122.286;2023-05-07T08:02:47;15.60;88.50
72883;DHT22;61017;37.812;-122.286;2023-05-07T08:04:21;15.60;88.50
72883;DHT22;61017;37.812;-122.286;2023-05-07T08:05:53;15.60;88.40
72883;DHT22;61017;37.812;-122.286;2023-05-07T08:07:25;15.60;88.50
72883;DHT22;61017;37.812;-122.286;2023-05-07T08:08:56;15.60;88.40
72883;DHT22;61017;37.812;-122.286;2023-05-07T08:10:28;15.60;88.50
72883;DHT22;61017;37.812;-122.286;2023-05-07T08:11:59;15.60;88.50
72883;DHT22;61017;37.812;-122.286;2023-05-07T08:13:31;15.60;88.40
72883;DHT22;61017;37.812;-122.286;2023-05-07T08:15:03;15.60;88.40
72883;DHT22;61017;37.812;-122.286;2023-05-07T08:16:35;15.60;88.40
72883;DHT22;61017;37.812;-122.286;2023-05-07T08:18:07;15.60;88.50
72883;DHT22;61017;37.812;-122.286;2023-05-07T08:19:38;15.60;88.40
72883;DHT22;61017;37.812;-122.286;2023-05-07T08:21:10;15.60;88.40
72883;DHT22;61017;37.812;-122.286;2023-05-07T08:22:42;15.60;88.40
72883;DHT22;61017;37.812;-122.286;2023-05-07T08:24:17;15.60;88.50
72883;DHT22;61017;37.812;-122.286;2023-05-07T08:25:49;15.60;88.40
72883;DHT22;61017;37.812;-122.286;2023-05-07T08:27:21;15.60;88.40
72883;DHT22;61017;37.812;-122.286;2023-05-07T08:28:52;15.60;88.40
72883;DHT22;61017;37.812;-122.286;2023-05-07T08:30:27;15.60;88.40
72883;DHT22;61017;37.812;-122.286;2023-05-07T08:31:59;15.60;88.40
72883;DHT22;61017;37.812;-122.286;2023-05-07T08:33:30;15.60;88.40
72883;DHT22;61017;37.812;-122.286;2023-05-07T08:35:02;15.60;88.50
72883;DHT22;61017;37.812;-122.286;2023-05-07T08:36:34;15.60;88.40
72883;DHT22;61017;37.812;-122.286;2023-05-07T08:38:05;15.60;88.40
72883;DHT22;61017;37.812;-122.286;2023-05-07T08:39:40;15.60;88.40
72883;DHT22;61017;37.812;-122.286;2023-05-07T08:41:11;15.60;88.50
72883;DHT22;61017;37.812;-122.286;2023-05-07T08:42:44;15.60;88.40
72883;DHT22;61017;37.812;-122.286;2023-05-07T08:44:17;15.60;88.50
72883;DHT22;61017;37.812;-122.286;2023-05-07T08:45:53;15.60;88.60
72883;DHT22;61017;37.812;-122.286;2023-05-07T08:47:32;15.60;88.40
72883;DHT22;61017;37.812;-122.286;2023-05-07T08:49:05;15.60;88.50
72883;DHT22;61017;37.812;-122.286;2023-05-07T08:50:37;15.60;88.40
72883;DHT22;61017;37.812;-122.286;2023-05-07T08:52:08;15.60;88.40
72883;DHT22;61017;37.812;-122.286;2023-05-07T08:53:41;15.60;88.60
72883;DHT22;61017;37.812;-122.286;2023-05-07T08:55:13;15.60;88.50
72883;DHT22;61017;37.812;-122.286;2023-05-07T08:56:45;15.60;88.40
72883;DHT22;61017;37.812;-122.286;2023-05-07T08:58:16;15.60;88.40
72883;DHT22;61017;37.812;-122.286;2023-05-07T08:59:48;15.60;88.40
72883;DHT22;61017;37.812;-122.286;2023-05-07T09:01:20;15.60;88.30
72883;DHT22;61017;37.812;-122.286;2023-05-07T09:02:53;15.60;88.20
72883;DHT22;61017;37.812;-122.286;2023-05-07T09:04:24;15.60;88.40
72883;DHT22;61017;37.812;-122.286;2023-05-07T09:05:56;15.60;88.30
72883;DHT22;61017;37.812;-122.286;2023-05-07T09:07:27;15.60;88.30
72883;DHT22;61017;37.812;-122.286;2023-05-07T09:08:59;15.60;88.30
72883;DHT22;61017;37.812;-122.286;2023-05-07T09:10:33;15.60;88.30
72883;DHT22;61017;37.812;-122.286;2023-05-07T09:12:08;15.60;88.20
72883;DHT22;61017;37.812;-122.286;2023-05-07T09:13:39;15.60;88.30
72883;DHT22;61017;37.812;-122.286;2023-05-07T09:15:11;15.60;88.20
72883;DHT22;61017;37.812;-122.286;2023-05-07T09:16:43;15.60;88.30
72883;DHT22;61017;37.812;-122.286;2023-05-07T09:18:14;15.50;88.10
72883;DHT22;61017;37.812;-122.286;2023-05-07T09:19:46;15.60;88.20
72883;DHT22;61017;37.812;-122.286;2023-05-07T09:21:18;15.60;88.20
72883;DHT22;61017;37.812;-122.286;2023-05-07T09:22:50;15.60;88.10
72883;DHT22;61017;37.812;-122.286;2023-05-07T09:24:22;15.60;88.20